sensor_id;sensor_type;location;lat;lon;timestamp;temperature;humidity
16441;DHT22;8330;-33.858;151.184;2024-02-23T00:01:37;31.40;99.90
16441;DHT22;8330;-33.858;151.184;2024-02-23T00:04:18;31.50;99.90
16441;DHT22;8330;-33.858;151.184;2024-02-23T00:06:51;31.50;99.90
16441;DHT22;8330;-33.858;151.184;2024-02-23T00:09:25;31.60;99.90
16441;DHT22;8330;-33.858;151.184;2024-02-23T00:12:01;31.60;99.90
16441;DHT22;8330;-33.858;151.184;2024-02-23T00:14:38;31.60;99.90
16441;DHT22;8330;-33.858;151.184;2024-02-23T00:17:18;31.70;99.90
16441;DHT22;8330;-33.858;151.184;2024-02-23T00:19:55;31.70;99.90
16441;DHT22;8330;-33.858;151.184;2024-02-23T00:22:28;31.70;99.90
16441;DHT22;8330;-33.858;151.184;2024-02-23T00:25:02;31.70;99.90
16441;DHT22;8330;-33.858;151.184;2024-02-23T00:27:36;31.80;99.90
16441;DHT22;8330;-33.858;151.184;2024-02-23T00:30:16;31.80;99.90
16441;DHT22;8330;-33.858;151.184;2024-02-23T00:32:51;31.80;99.90
16441;DHT22;8330;-33.858;151.184;2024-02-23T00:35:34;31.90;99.90
16441;DHT22;8330;-33.858;151.184;2024-02-23T00:38:10;31.90;99.90
16441;DHT22;8330;-33.858;151.184;2024-02-23T00:40:49;31.90;99.90
16441;DHT22;8330;-33.858;151.184;2024-02-23T00:43:23;31.90;99.90
16441;DHT22;8330;-33.858;151.184;2024-02-23T00:46:02;31.90;99.90
16441;DHT22;8330;-33.858;151.184;2024-02-23T00:48:37;32.10;99.90
16441;DHT22;8330;-33.858;151.184;2024-02-23T00:51:18;32.10;99.90
16441;DHT22;8330;-33.858;151.184;2024-02-23T00:53:51;32.10;99.90
16441;DHT22;8330;-33.858;151.184;2024-02-23T00:56:24;32.10;99.90
16441;DHT22;8330;-33.858;151.184;2024-02-23T00:58:58;32.20;99.90
16441;DHT22;8330;-33.858;151.184;2024-02-23T01:01:30;32.40;99.90
16441;DHT22;8330;-33.858;151.184;2024-02-23T01:04:03;32.40;99.90
16441;DHT22;8330;-33.858;151.184;2024-02-23T01:06:38;32.60;99.90
16441;DHT22;8330;-33.858;151.184;2024-02-23T01:09:16;32.70;99.90
16441;DHT22;8330;-33.858;151.184;2024-02-23T01:11:49;32.90;99.90
16441;DHT22;8330;-33.858;151.184;2024-02-23T01:14:21;33.00;99.90
16441;DHT22;8330;-33.858;151.184;2024-02-23T01:16:53;33.00;99.90
16441;DHT22;8330;-33.858;151.184;2024-02-23T01:19:27;33.20;99.90
16441;DHT22;8330;-33.858;151.184;2024-02-23T01:22:01;33.20;99.90
16441;DHT22;8330;-33.858;151.184;2024-02-23T01:24:34;33.20;99.90
16441;DHT22;8330;-33.858;151.184;2024-02-23T01:27:06;33.20;99.90
16441;DHT22;8330;-33.858;151.184;2024-02-23T01:29:39;33.30;99.90
16441;DHT22;8330;-33.858;151.184;2024-02-23T01:32:16;33.40;99.90
16441;DHT22;8330;-33.858;151.184;2024-02-23T01:34:49;33.50;99.90
16441;DHT22;8330;-33.858;151.184;2024-02-23T01:37:24;33.60;99.90
16441;DHT22;8330;-33.858;151.184;2024-02-23T01:39:57;33.60;99.90
16441;DHT22;8330;-33.858;151.184;2024-02-23T01:42:30;33.80;99.90
16441;DHT22;8330;-33.858;151.184;2024-02-23T01:45:09;33.80;99.90
16441;DHT22;8330;-33.858;151.184;2024-02-23T01:47:46;33.90;99.80
16441;DHT22;8330;-33.858;151.184;2024-02-23T01:50:29;33.90;98.30
16441;DHT22;8330;-33.858;151.184;2024-02-23T01:53:05;34.00;98.70
16441;DHT22;8330;-33.858;151.184;2024-02-23T01:55:43;34.00;97.00
16441;DHT22;8330;-33.858;151.184;2024-02-23T01:58:22;34.10;96.20
16441;DHT22;8330;-33.858;151.184;2024-02-23T02:00:57;34.10;94.40
16441;DHT22;8330;-33.858;151.184;2024-02-23T02:03:32;34.20;94.50
16441;DHT22;8330;-33.858;151.184;2024-02-23T02:06:07;34.20;94.20
16441;DHT22;8330;-33.858;151.184;2024-02-23T02:08:48;34.30;93.70
16441;DHT22;8330;-33.858;151.184;2024-02-23T02:11:21;34.40;92.30
16441;DHT22;8330;-33.858;151.184;2024-02-23T02:13:54;34.50;93.00
16441;DHT22;8330;-33.858;151.184;2024-02-23T02:16:26;34.50;92.60
16441;DHT22;8330;-33.858;151.184;2024-02-23T02:19:02;34.50;93.30
16441;DHT22;8330;-33.858;151.184;2024-02-23T02:21:36;34.50;93.20
16441;DHT22;8330;-33.858;151.184;2024-02-23T02:24:19;34.60;91.00
16441;DHT22;8330;-33.858;151.184;2024-02-23T02:26:59;34.70;91.40
16441;DHT22;8330;-33.858;151.184;2024-02-23T02:29:49;34.70;90.60
16441;DHT22;8330;-33.858;151.184;2024-02-23T02:32:26;34.80;90.20
16441;DHT22;8330;-33.858;151.184;2024-02-23T02:35:01;34.80;89.70
16441;DHT22;8330;-33.858;151.184;2024-02-23T02:37:36;34.80;88.00
16441;DHT22;8330;-33.858;151.184;2024-02-23T02:40:14;34.80;88.30
16441;DHT22;8330;-33.858;151.184;2024-02-23T02:42:47;34.80;89.60
16441;DHT22;8330;-33.858;151.184;2024-02-23T02:45:21;34.90;86.80
16441;DHT22;8330;-33.858;151.184;2024-02-23T02:47:59;35.00;85.50
16441;DHT22;8330;-33.858;151.184;2024-02-23T02:50:32;35.00;86.30
16441;DHT22;8330;-33.858;151.184;2024-02-23T02:53:05;35.00;87.00
16441;DHT22;8330;-33.858;151.184;2024-02-23T02:55:45;35.00;83.90
16441;DHT22;8330;-33.858;151.184;2024-02-23T02:58:31;35.10;83.60
16441;DHT22;8330;-33.858;151.184;2024-02-23T03:01:07;35.10;85.40
16441;DHT22;8330;-33.858;151.184;2024-02-23T03:03:46;35.10;85.20
16441;DHT22;8330;-33.858;151.184;2024-02-23T03:06:26;35.20;82.80
16441;DHT22;8330;-33.858;151.184;2024-02-23T03:09:01;35.30;83.90
16441;DHT22;8330;-33.858;151.184;2024-02-23T03:11:50;35.40;83.90
16441;DHT22;8330;-33.858;151.184;2024-02-23T03:14:25;35.60;80.00
16441;DHT22;8330;-33.858;151.184;2024-02-23T03:17:18;35.60;81.30
16441;DHT22;8330;-33.858;151.184;2024-02-23T03:19:51;35.60;80.50
16441;DHT22;8330;-33.858;151.184;2024-02-23T03:22:26;35.70;77.90
16441;DHT22;8330;-33.858;151.184;2024-02-23T03:25:00;35.60;78.80
16441;DHT22;8330;-33.858;151.184;2024-02-23T03:27:46;35.50;76.60
16441;DHT22;8330;-33.858;151.184;2024-02-23T03:30:25;35.60;78.20
16441;DHT22;8330;-33.858;151.184;2024-02-23T03:33:07;35.60;80.50
16441;DHT22;8330;-33.858;151.184;2024-02-23T03:35:48;35.70;80.50
16441;DHT22;8330;-33.858;151.184;2024-02-23T03:38:28;35.80;80.00
16441;DHT22;8330;-33.858;151.184;2024-02-23T03:41:02;36.00;77.50
16441;DHT22;8330;-33.858;151.184;2024-02-23T03:43:40;36.00;78.20
16441;DHT22;8330;-33.858;151.184;2024-02-23T03:46:26;35.90;78.40
16441;DHT22;8330;-33.858;151.184;2024-02-23T03:48:59;35.90;77.20
16441;DHT22;8330;-33.858;151.184;2024-02-23T03:51:31;35.90;75.00
16441;DHT22;8330;-33.858;151.184;2024-02-23T03:54:08;36.00;75.10
16441;DHT22;8330;-33.858;151.184;2024-02-23T03:56:45;36.10;78.20
16441;DHT22;8330;-33.858;151.184;2024-02-23T03:59:20;36.40;76.30
16441;DHT22;8330;-33.858;151.184;2024-02-23T04:01:52;36.40;75.80
16441;DHT22;8330;-33.858;151.184;2024-02-23T04:04:24;36.40;75.50
16441;DHT22;8330;-33.858;151.184;2024-02-23T04:06:56;36.30;74.30
16441;DHT22;8330;-33.858;151.184;2024-02-23T04:09:28;36.40;75.10
16441;DHT22;8330;-33.858;151.184;2024-02-23T04:12:00;36.30;74.00
16441;DHT22;8330;-33.858;151.184;2024-02-23T04:14:36;36.20;74.60
16441;DHT22;8330;-33.858;151.184;2024-02-23T04:17:09;36.10;74.00
16441;DHT22;8330;-33.858;151.184;2024-02-23T04:19:47;36.00;73.80
16441;DHT22;8330;-33.858;151.184;2024-02-23T04:22:19;35.90;75.20
16441;DHT22;8330;-33.858;151.184;2024-02-23T04:24:51;35.80;74.70
16441;DHT22;8330;-33.858;151.184;2024-02-23T04:27:22;35.70;74.60
16441;DHT22;8330;-33.858;151.184;2024-02-23T04:29:58;35.60;75.50
16441;DHT22;8330;-33.858;151.184;2024-02-23T04:32:31;35.60;73.00
16441;DHT22;8330;-33.858;151.184;2024-02-23T04:35:08;35.60;73.60
16441;DHT22;8330;-33.858;151.184;2024-02-23T04:37:46;35.70;74.30
16441;DHT22;8330;-33.858;151.184;2024-02-23T04:40:19;35.70;74.70
16441;DHT22;8330;-33.858;151.184;2024-02-23T04:42:50;35.70;73.30
16441;DHT22;8330;-33.858;151.184;2024-02-23T04:45:30;35.70;74.60
16441;DHT22;8330;-33.858;151.184;2024-02-23T04:48:07;35.80;76.30
16441;DHT22;8330;-33.858;151.184;2024-02-23T04:50:47;35.80;74.10
16441;DHT22;8330;-33.858;151.184;2024-02-23T04:53:20;35.80;72.40
16441;DHT22;8330;-33.858;151.184;2024-02-23T04:55:52;35.90;72.50
16441;DHT22;8330;-33.858;151.184;2024-02-23T04:58:25;36.00;74.30
16441;DHT22;8330;-33.858;151.184;2024-02-23T05:01:04;36.00;74.20
16441;DHT22;8330;-33.858;151.184;2024-02-23T05:03:36;36.10;72.40
16441;DHT22;8330;-33.858;151.184;2024-02-23T05:06:10;36.00;71.90
16441;DHT22;8330;-33.858;151.184;2024-02-23T05:08:48;36.10;71.70
16441;DHT22;8330;-33.858;151.184;2024-02-23T05:11:19;36.40;72.20
16441;DHT22;8330;-33.858;151.184;2024-02-23T05:13:52;36.50;70.20
16441;DHT22;8330;-33.858;151.184;2024-02-23T05:16:26;36.70;70.40
16441;DHT22;8330;-33.858;151.184;2024-02-23T05:18:58;36.80;69.90
16441;DHT22;8330;-33.858;151.184;2024-02-23T05:21:31;36.90;69.10
16441;DHT22;8330;-33.858;151.184;2024-02-23T05:24:03;37.10;68.30
16441;DHT22;8330;-33.858;151.184;2024-02-23T05:26:35;37.20;68.00
16441;DHT22;8330;-33.858;151.184;2024-02-23T05:29:07;37.10;68.40
16441;DHT22;8330;-33.858;151.184;2024-02-23T05:31:52;36.90;68.30
16441;DHT22;8330;-33.858;151.184;2024-02-23T05:34:24;36.80;67.20
16441;DHT22;8330;-33.858;151.184;2024-02-23T05:36:58;36.80;66.90
16441;DHT22;8330;-33.858;151.184;2024-02-23T05:39:39;36.20;69.50
16441;DHT22;8330;-33.858;151.184;2024-02-23T05:42:20;35.20;73.70
16441;DHT22;8330;-33.858;151.184;2024-02-23T05:44:52;34.50;77.50
16441;DHT22;8330;-33.858;151.184;2024-02-23T05:47:33;33.80;79.50
16441;DHT22;8330;-33.858;151.184;2024-02-23T05:50:10;33.00;81.40
16441;DHT22;8330;-33.858;151.184;2024-02-23T05:52:51;32.50;85.00
16441;DHT22;8330;-33.858;151.184;2024-02-23T05:55:24;32.00;90.00
16441;DHT22;8330;-33.858;151.184;2024-02-23T05:57:57;31.60;93.10
16441;DHT22;8330;-33.858;151.184;2024-02-23T06:00:33;31.20;96.90
16441;DHT22;8330;-33.858;151.184;2024-02-23T06:03:08;30.80;99.70
16441;DHT22;8330;-33.858;151.184;2024-02-23T06:05:47;30.70;99.90
16441;DHT22;8330;-33.858;151.184;2024-02-23T06:08:21;30.60;99.90
16441;DHT22;8330;-33.858;151.184;2024-02-23T06:10:53;30.60;99.90
16441;DHT22;8330;-33.858;151.184;2024-02-23T06:13:28;30.50;99.90
16441;DHT22;8330;-33.858;151.184;2024-02-23T06:16:03;30.40;99.90
16441;DHT22;8330;-33.858;151.184;2024-02-23T06:18:40;30.40;99.90
16441;DHT22;8330;-33.858;151.184;2024-02-23T06:21:19;30.30;99.90
16441;DHT22;8330;-33.858;151.184;2024-02-23T06:23:57;30.30;99.90
16441;DHT22;8330;-33.858;151.184;2024-02-23T06:26:31;30.20;99.90
16441;DHT22;8330;-33.858;151.184;2024-02-23T06:29:18;30.00;99.90
16441;DHT22;8330;-33.858;151.184;2024-02-23T06:31:49;30.20;99.90
16441;DHT22;8330;-33.858;151.184;2024-02-23T06:37:54;30.10;99.90
16441;DHT22;8330;-33.858;151.184;2024-02-23T06:40:25;29.90;99.90
16441;DHT22;8330;-33.858;151.184;2024-02-23T06:43:00;29.90;99.90
16441;DHT22;8330;-33.858;151.184;2024-02-23T06:45:34;29.80;99.90
16441;DHT22;8330;-33.858;151.184;2024-02-23T06:48:08;29.80;99.90
16441;DHT22;8330;-33.858;151.184;2024-02-23T06:50:49;29.70;99.90
16441;DHT22;8330;-33.858;151.184;2024-02-23T06:53:26;29.40;99.90
16441;DHT22;8330;-33.858;151.184;2024-02-23T06:56:03;29.00;99.90
16441;DHT22;8330;-33.858;151.184;2024-02-23T06:58:36;28.80;99.90
16441;DHT22;8330;-33.858;151.184;2024-02-23T07:01:07;28.60;99.90
16441;DHT22;8330;-33.858;151.184;2024-02-23T07:03:40;28.40;99.90
16441;DHT22;8330;-33.858;151.184;2024-02-23T07:06:15;28.30;99.90
16441;DHT22;8330;-33.858;151.184;2024-02-23T07:08:50;28.20;99.90
16441;DHT22;8330;-33.858;151.184;2024-02-23T07:11:23;28.00;99.90
16441;DHT22;8330;-33.858;151.184;2024-02-23T07:13:54;27.90;99.90
16441;DHT22;8330;-33.858;151.184;2024-02-23T07:16:26;27.80;99.90
16441;DHT22;8330;-33.858;151.184;2024-02-23T07:18:57;27.80;99.90
16441;DHT22;8330;-33.858;151.184;2024-02-23T07:21:29;27.70;99.90
16441;DHT22;8330;-33.858;151.184;2024-02-23T07:24:03;27.70;99.90
16441;DHT22;8330;-33.858;151.184;2024-02-23T07:26:34;27.50;99.90
16441;DHT22;8330;-33.858;151.184;2024-02-23T07:29:06;27.60;99.90
16441;DHT22;8330;-33.858;151.184;2024-02-23T07:31:43;27.60;99.90
16441;DHT22;8330;-33.858;151.184;2024-02-23T07:34:16;27.60;99.90
16441;DHT22;8330;-33.858;151.184;2024-02-23T07:36:48;27.50;99.90
16441;DHT22;8330;-33.858;151.184;2024-02-23T07:39:24;27.50;99.90
16441;DHT22;8330;-33.858;151.184;2024-02-23T07:41:56;27.50;99.90
16441;DHT22;8330;-33.858;151.184;2024-02-23T07:44:27;27.50;99.90
16441;DHT22;8330;-33.858;151.184;2024-02-23T07:46:59;27.50;99.90
16441;DHT22;8330;-33.858;151.184;2024-02-23T07:49:31;27.60;99.90
16441;DHT22;8330;-33.858;151.184;2024-02-23T07:52:04;27.50;99.90
16441;DHT22;8330;-33.858;151.184;2024-02-23T07:54:39;27.60;99.90
16441;DHT22;8330;-33.858;151.184;2024-02-23T07:57:16;27.80;99.90
16441;DHT22;8330;-33.858;151.184;2024-02-23T07:59:49;27.90;99.90
16441;DHT22;8330;-33.858;151.184;2024-02-23T08:02:23;27.90;99.90
16441;DHT22;8330;-33.858;151.184;2024-02-23T08:04:56;28.00;99.90
16441;DHT22;8330;-33.858;151.184;2024-02-23T08:07:28;28.10;99.90
16441;DHT22;8330;-33.858;151.184;2024-02-23T08:10:05;28.10;99.90
16441;DHT22;8330;-33.858;151.184;2024-02-23T08:12:38;28.00;99.90
16441;DHT22;8330;-33.858;151.184;2024-02-23T08:15:17;28.00;99.90
16441;DHT22;8330;-33.858;151.184;2024-02-23T08:17:52;28.00;99.90
16441;DHT22;8330;-33.858;151.184;2024-02-23T08:20:31;27.90;99.90
16441;DHT22;8330;-33.858;151.184;2024-02-23T09:24:40;26.80;99.90
16441;DHT22;8330;-33.858;151.184;2024-02-23T09:27:11;26.80;99.90
16441;DHT22;8330;-33.858;151.184;2024-02-23T09:29:42;26.80;99.90
16441;DHT22;8330;-33.858;151.184;2024-02-23T11:44:51;25.70;99.90
16441;DHT22;8330;-33.858;151.184;2024-02-23T11:51:13;25.60;99.90
16441;DHT22;8330;-33.858;151.184;2024-02-23T11:57:58;25.50;99.90
16441;DHT22;8330;-33.858;151.184;2024-02-23T12:04:21;25.40;99.90
16441;DHT22;8330;-33.858;151.184;2024-02-23T12:10:37;25.40;99.90
16441;DHT22;8330;-33.858;151.184;2024-02-23T12:20:19;25.30;99.90
16441;DHT22;8330;-33.858;151.184;2024-02-23T12:39:57;24.90;99.90
16441;DHT22;8330;-33.858;151.184;2024-02-23T12:43:01;24.90;99.90
16441;DHT22;8330;-33.858;151.184;2024-02-23T12:45:35;24.90;99.90
16441;DHT22;8330;-33.858;151.184;2024-02-23T12:51:19;24.70;99.90
16441;DHT22;8330;-33.858;151.184;2024-02-23T12:54:06;24.70;99.90
16441;DHT22;8330;-33.858;151.184;2024-02-23T13:11:34;24.60;99.90
16441;DHT22;8330;-33.858;151.184;2024-02-23T13:14:27;24.50;99.90
16441;DHT22;8330;-33.858;151.184;2024-02-23T13:17:06;24.50;99.90
16441;DHT22;8330;-33.858;151.184;2024-02-23T13:19:50;24.40;99.90
16441;DHT22;8330;-33.858;151.184;2024-02-23T13:22:34;24.30;99.90
16441;DHT22;8330;-33.858;151.184;2024-02-23T13:25:11;24.20;99.90
16441;DHT22;8330;-33.858;151.184;2024-02-23T13:27:50;24.00;99.90
16441;DHT22;8330;-33.858;151.184;2024-02-23T13:30:25;24.00;99.90
16441;DHT22;8330;-33.858;151.184;2024-02-23T13:33:01;24.10;99.90
16441;DHT22;8330;-33.858;151.184;2024-02-23T13:35:57;24.10;99.90
16441;DHT22;8330;-33.858;151.184;2024-02-23T13:38:48;24.10;99.90
16441;DHT22;8330;-33.858;151.184;2024-02-23T13:41:26;24.00;99.90
16441;DHT22;8330;-33.858;151.184;2024-02-23T13:44:01;23.90;99.90
16441;DHT22;8330;-33.858;151.184;2024-02-23T13:46:37;23.90;99.90
16441;DHT22;8330;-33.858;151.184;2024-02-23T13:49:28;23.90;99.90
16441;DHT22;8330;-33.858;151.184;2024-02-23T13:52:06;23.90;99.90
16441;DHT22;8330;-33.858;151.184;2024-02-23T13:54:39;24.00;99.90
16441;DHT22;8330;-33.858;151.184;2024-02-23T13:57:31;24.00;99.90
16441;DHT22;8330;-33.858;151.184;2024-02-23T14:00:12;23.90;99.90
16441;DHT22;8330;-33.858;151.184;2024-02-23T14:02:49;23.90;99.90
16441;DHT22;8330;-33.858;151.184;2024-02-23T14:05:29;23.90;99.90
16441;DHT22;8330;-33.858;151.184;2024-02-23T14:08:03;23.90;99.90
16441;DHT22;8330;-33.858;151.184;2024-02-23T14:13:59;24.00;99.90
16441;DHT22;8330;-33.858;151.184;2024-02-23T14:16:35;24.00;99.90
16441;DHT22;8330;-33.858;151.184;2024-02-23T14:19:17;23.90;99.90
16441;DHT22;8330;-33.858;151.184;2024-02-23T14:21:51;23.90;99.90
16441;DHT22;8330;-33.858;151.184;2024-02-23T14:24:33;23.90;99.90
16441;DHT22;8330;-33.858;151.184;2024-02-23T14:27:09;23.90;99.90
16441;DHT22;8330;-33.858;151.184;2024-02-23T14:29:53;23.80;99.90
16441;DHT22;8330;-33.858;151.184;2024-02-23T14:32:26;23.70;99.90
16441;DHT22;8330;-33.858;151.184;2024-02-23T14:34:59;23.70;99.90
16441;DHT22;8330;-33.858;151.184;2024-02-23T14:37:36;23.70;99.90
16441;DHT22;8330;-33.858;151.184;2024-02-23T14:43:32;23.70;99.90
16441;DHT22;8330;-33.858;151.184;2024-02-23T14:46:22;23.60;99.90
16441;DHT22;8330;-33.858;151.184;2024-02-23T14:49:09;23.60;99.90
16441;DHT22;8330;-33.858;151.184;2024-02-23T14:55:16;23.50;99.90
16441;DHT22;8330;-33.858;151.184;2024-02-23T14:58:01;23.40;99.90
16441;DHT22;8330;-33.858;151.184;2024-02-23T15:00:36;23.40;99.90
16441;DHT22;8330;-33.858;151.184;2024-02-23T15:03:33;23.30;99.90
16441;DHT22;8330;-33.858;151.184;2024-02-23T15:06:07;23.30;99.90
16441;DHT22;8330;-33.858;151.184;2024-02-23T15:08:54;23.30;99.90
16441;DHT22;8330;-33.858;151.184;2024-02-23T15:11:59;23.40;99.90
16441;DHT22;8330;-33.858;151.184;2024-02-23T15:14:40;23.40;99.90
16441;DHT22;8330;-33.858;151.184;2024-02-23T15:17:58;23.40;99.90
16441;DHT22;8330;-33.858;151.184;2024-02-23T15:20:46;23.30;99.90
16441;DHT22;8330;-33.858;151.184;2024-02-23T15:23:29;23.30;99.90
16441;DHT22;8330;-33.858;151.184;2024-02-23T15:26:23;23.30;99.90
16441;DHT22;8330;-33.858;151.184;2024-02-23T15:29:17;23.30;99.90
16441;DHT22;8330;-33.858;151.184;2024-02-23T15:35:05;23.20;99.90
16441;DHT22;8330;-33.858;151.184;2024-02-23T15:38:10;23.20;99.90
16441;DHT22;8330;-33.858;151.184;2024-02-23T15:40:53;23.20;99.90
16441;DHT22;8330;-33.858;151.184;2024-02-23T15:43:33;23.20;99.90
16441;DHT22;8330;-33.858;151.184;2024-02-23T15:46:21;23.20;99.90
16441;DHT22;8330;-33.858;151.184;2024-02-23T15:49:11;23.10;99.90
16441;DHT22;8330;-33.858;151.184;2024-02-23T15:51:55;23.10;99.90
16441;DHT22;8330;-33.858;151.184;2024-02-23T15:54:59;23.10;99.90
16441;DHT22;8330;-33.858;151.184;2024-02-23T15:57:56;23.10;99.90
16441;DHT22;8330;-33.858;151.184;2024-02-23T16:00:38;23.00;99.90
16441;DHT22;8330;-33.858;151.184;2024-02-23T16:03:40;23.00;99.90
16441;DHT22;8330;-33.858;151.184;2024-02-23T16:06:37;22.90;99.90
16441;DHT22;8330;-33.858;151.184;2024-02-23T16:09:27;22.90;99.90
16441;DHT22;8330;-33.858;151.184;2024-02-23T16:12:09;22.90;99.90
16441;DHT22;8330;-33.858;151.184;2024-02-23T16:14:53;22.80;99.90
16441;DHT22;8330;-33.858;151.184;2024-02-23T16:17:34;22.80;99.90
16441;DHT22;8330;-33.858;151.184;2024-02-23T16:20:09;22.70;99.90
16441;DHT22;8330;-33.858;151.184;2024-02-23T16:22:51;22.70;99.90
16441;DHT22;8330;-33.858;151.184;2024-02-23T16:25:28;22.70;99.90
16441;DHT22;8330;-33.858;151.184;2024-02-23T16:28:23;22.70;99.90
16441;DHT22;8330;-33.858;151.184;2024-02-23T16:30:58;22.80;99.90
16441;DHT22;8330;-33.858;151.184;2024-02-23T16:33:31;22.70;99.90
16441;DHT22;8330;-33.858;151.184;2024-02-23T16:36:03;22.70;99.90
16441;DHT22;8330;-33.858;151.184;2024-02-23T16:38:37;22.70;99.90
16441;DHT22;8330;-33.858;151.184;2024-02-23T16:41:10;22.70;99.90
16441;DHT22;8330;-33.858;151.184;2024-02-23T16:43:51;22.70;99.90
16441;DHT22;8330;-33.858;151.184;2024-02-23T16:46:27;22.80;99.90
16441;DHT22;8330;-33.858;151.184;2024-02-23T16:49:08;22.80;99.90
16441;DHT22;8330;-33.858;151.184;2024-02-23T16:51:56;22.80;99.90
16441;DHT22;8330;-33.858;151.184;2024-02-23T16:54:34;22.80;99.90
16441;DHT22;8330;-33.858;151.184;2024-02-23T16:57:11;22.70;99.90
16441;DHT22;8330;-33.858;151.184;2024-02-23T17:00:06;22.70;99.90
16441;DHT22;8330;-33.858;151.184;2024-02-23T17:03:02;22.80;99.90
16441;DHT22;8330;-33.858;151.184;2024-02-23T17:05:38;22.70;99.90
16441;DHT22;8330;-33.858;151.184;2024-02-23T17:08:26;22.70;99.90
16441;DHT22;8330;-33.858;151.184;2024-02-23T17:11:05;22.80;99.90
16441;DHT22;8330;-33.858;151.184;2024-02-23T17:13:40;22.80;99.90
16441;DHT22;8330;-33.858;151.184;2024-02-23T17:16:35;22.70;99.90
16441;DHT22;8330;-33.858;151.184;2024-02-23T17:19:21;22.70;99.90
16441;DHT22;8330;-33.858;151.184;2024-02-23T17:22:01;22.70;99.90
16441;DHT22;8330;-33.858;151.184;2024-02-23T17:24:37;22.70;99.90
16441;DHT22;8330;-33.858;151.184;2024-02-23T17:27:21;22.60;99.90
16441;DHT22;8330;-33.858;151.184;2024-02-23T17:30:01;22.70;99.90
16441;DHT22;8330;-33.858;151.184;2024-02-23T17:35:51;22.60;99.90
16441;DHT22;8330;-33.858;151.184;2024-02-23T17:38:28;22.60;99.90
16441;DHT22;8330;-33.858;151.184;2024-02-23T17:41:02;22.70;99.90
16441;DHT22;8330;-33.858;151.184;2024-02-23T17:43:39;22.60;99.90
16441;DHT22;8330;-33.858;151.184;2024-02-23T17:46:24;22.60;99.90
16441;DHT22;8330;-33.858;151.184;2024-02-23T17:49:06;22.60;99.90
16441;DHT22;8330;-33.858;151.184;2024-02-23T17:51:42;22.60;99.90
16441;DHT22;8330;-33.858;151.184;2024-02-23T17:54:24;22.50;99.90
16441;DHT22;8330;-33.858;151.184;2024-02-23T17:57:07;22.50;99.90
16441;DHT22;8330;-33.858;151.184;2024-02-23T17:59:42;22.40;99.90
16441;DHT22;8330;-33.858;151.184;2024-02-23T18:02:21;22.50;99.90
16441;DHT22;8330;-33.858;151.184;2024-02-23T18:04:57;22.40;99.90
16441;DHT22;8330;-33.858;151.184;2024-02-23T18:07:29;22.40;99.90
16441;DHT22;8330;-33.858;151.184;2024-02-23T18:10:06;22.50;99.90
16441;DHT22;8330;-33.858;151.184;2024-02-23T18:12:43;22.50;99.90
16441;DHT22;8330;-33.858;151.184;2024-02-23T18:15:21;22.60;99.90
16441;DHT22;8330;-33.858;151.184;2024-02-23T18:17:53;22.50;99.90
16441;DHT22;8330;-33.858;151.184;2024-02-23T18:20:29;22.50;99.90
16441;DHT22;8330;-33.858;151.184;2024-02-23T18:23:01;22.50;99.90
16441;DHT22;8330;-33.858;151.184;2024-02-23T18:25:33;22.60;99.90
16441;DHT22;8330;-33.858;151.184;2024-02-23T18:28:06;22.60;99.90
16441;DHT22;8330;-33.858;151.184;2024-02-23T18:30:38;22.60;99.90
16441;DHT22;8330;-33.858;151.184;2024-02-23T18:33:12;22.60;99.90
16441;DHT22;8330;-33.858;151.184;2024-02-23T18:35:52;22.70;99.90
16441;DHT22;8330;-33.858;151.184;2024-02-23T18:38:25;22.70;99.90
16441;DHT22;8330;-33.858;151.184;2024-02-23T18:41:04;22.70;99.90
16441;DHT22;8330;-33.858;151.184;2024-02-23T18:43:49;22.70;99.90
16441;DHT22;8330;-33.858;151.184;2024-02-23T18:46:27;22.70;99.90
16441;DHT22;8330;-33.858;151.184;2024-02-23T18:49:11;22.60;99.90
16441;DHT22;8330;-33.858;151.184;2024-02-23T18:52:10;22.60;99.90
16441;DHT22;8330;-33.858;151.184;2024-02-23T18:58:37;22.50;99.90
16441;DHT22;8330;-33.858;151.184;2024-02-23T19:01:42;22.50;99.90
16441;DHT22;8330;-33.858;151.184;2024-02-23T19:04:29;22.50;99.90
16441;DHT22;8330;-33.858;151.184;2024-02-23T19:10:39;22.60;99.90
16441;DHT22;8330;-33.858;151.184;2024-02-23T19:13:25;22.60;99.90
16441;DHT22;8330;-33.858;151.184;2024-02-23T19:33:37;22.90;99.90
16441;DHT22;8330;-33.858;151.184;2024-02-23T19:39:32;22.80;99.90
16441;DHT22;8330;-33.858;151.184;2024-02-23T20:29:20;22.90;99.90
16441;DHT22;8330;-33.858;151.184;2024-02-23T20:32:31;22.80;99.90
16441;DHT22;8330;-33.858;151.184;2024-02-23T20:35:28;22.90;99.90
16441;DHT22;8330;-33.858;151.184;2024-02-23T20:38:13;22.90;99.90
16441;DHT22;8330;-33.858;151.184;2024-02-23T20:44:07;22.80;99.90
16441;DHT22;8330;-33.858;151.184;2024-02-23T20:46:56;22.90;99.90
16441;DHT22;8330;-33.858;151.184;2024-02-23T20:49:31;22.90;99.90
16441;DHT22;8330;-33.858;151.184;2024-02-23T20:52:30;22.90;99.90
16441;DHT22;8330;-33.858;151.184;2024-02-23T20:55:26;22.90;99.90
16441;DHT22;8330;-33.858;151.184;2024-02-23T20:58:25;22.90;99.90
16441;DHT22;8330;-33.858;151.184;2024-02-23T21:24:10;23.00;99.90
16441;DHT22;8330;-33.858;151.184;2024-02-23T21:26:46;22.90;99.90
16441;DHT22;8330;-33.858;151.184;2024-02-23T21:29:41;22.90;99.90
16441;DHT22;8330;-33.858;151.184;2024-02-23T21:32:30;22.80;99.90
16441;DHT22;8330;-33.858;151.184;2024-02-23T21:35:45;22.70;99.90
16441;DHT22;8330;-33.858;151.184;2024-02-23T21:38:31;22.70;99.90
16441;DHT22;8330;-33.858;151.184;2024-02-23T21:41:18;22.80;99.90
16441;DHT22;8330;-33.858;151.184;2024-02-23T21:43:56;22.80;99.90
16441;DHT22;8330;-33.858;151.184;2024-02-23T21:46:28;22.70;99.90
16441;DHT22;8330;-33.858;151.184;2024-02-23T21:49:00;22.60;99.90
16441;DHT22;8330;-33.858;151.184;2024-02-23T21:51:41;22.50;99.90
16441;DHT22;8330;-33.858;151.184;2024-02-23T21:54:27;22.50;99.90
16441;DHT22;8330;-33.858;151.184;2024-02-23T21:57:09;22.30;99.90
16441;DHT22;8330;-33.858;151.184;2024-02-23T22:00:02;22.20;99.90
16441;DHT22;8330;-33.858;151.184;2024-02-23T22:02:45;22.30;99.90
16441;DHT22;8330;-33.858;151.184;2024-02-23T22:05:36;22.40;99.90
16441;DHT22;8330;-33.858;151.184;2024-02-23T22:08:13;22.40;99.90
16441;DHT22;8330;-33.858;151.184;2024-02-23T22:10:45;22.30;99.90
16441;DHT22;8330;-33.858;151.184;2024-02-23T22:13:37;22.30;99.90
16441;DHT22;8330;-33.858;151.184;2024-02-23T22:19:47;22.50;99.90
16441;DHT22;8330;-33.858;151.184;2024-02-23T22:34:25;22.80;99.90
16441;DHT22;8330;-33.858;151.184;2024-02-23T22:37:04;22.90;99.90
16441;DHT22;8330;-33.858;151.184;2024-02-23T22:40:02;22.90;99.90
16441;DHT22;8330;-33.858;151.184;2024-02-23T22:42:48;22.80;99.90